Home > Products > Valid Products > MTR

000
SAUS43 KAPX 011355
MTRAPN
METAR KAPN 011354Z AUTO 17005KT 10SM OVC044 03/M02 A3010 RMK AO2
SLP203 T00281022





000
SAUS43 KAPX 011255
MTRAPN
METAR KAPN 011254Z AUTO 16004KT 10SM OVC044 01/M02 A3010 RMK AO2
SLP201 T00061022





000
SAUS43 KAPX 011255
MTRAPN
METAR KAPN 011254Z AUTO 16004KT 10SM OVC044 01/M02 A3010 RMK AO2
SLP201 T00061022





000
SAUS43 KAPX 011238
MTRAPN
SPECI KAPN 011237Z AUTO 14004KT 10SM SCT024 OVC043 00/M02 A3009 RMK
AO2 T00001022





000
SAUS43 KAPX 011238
MTRAPN
SPECI KAPN 011237Z AUTO 14004KT 10SM SCT024 OVC043 00/M02 A3009 RMK
AO2 T00001022





000
SAUS43 KAPX 011155
MTRAPN
METAR KAPN 011154Z AUTO 14003KT 10SM BKN022 OVC043 M01/M03 A3008 RMK
AO2 SLP197 T10061028 11006 21017 51013





000
SAUS43 KAPX 011155
MTRAPN
METAR KAPN 011154Z AUTO 14003KT 10SM BKN022 OVC043 M01/M03 A3008 RMK
AO2 SLP197 T10061028 11006 21017 51013





000
SAUS43 KAPX 011134
MTRAPN
SPECI KAPN 011133Z AUTO 00000KT 10SM SCT022 OVC043 M01/M03 A3007 RMK
AO2 T10111028





000
SAUS43 KAPX 011134
MTRAPN
SPECI KAPN 011133Z AUTO 00000KT 10SM SCT022 OVC043 M01/M03 A3007 RMK
AO2 T10111028





000
SAUS43 KAPX 011056
MTRAPN
METAR KAPN 011054Z AUTO 00000KT 10SM OVC026 M01/M03 A3007 RMK AO2
SLP191 T10111028





000
SAUS43 KAPX 011056
MTRAPN
METAR KAPN 011054Z AUTO 00000KT 10SM OVC026 M01/M03 A3007 RMK AO2
SLP191 T10111028





000
SAUS43 KAPX 010955
MTRAPN
METAR KAPN 010954Z AUTO 00000KT 10SM OVC024 M01/M03 A3005 RMK AO2
SLP183 T10111028





000
SAUS43 KAPX 010855
MTRAPN
METAR KAPN 010854Z AUTO 00000KT 10SM OVC023 M01/M03 A3002 RMK AO2
SLP176 T10111033 53010





000
SAUS43 KAPX 010855
MTRAPN
METAR KAPN 010854Z AUTO 00000KT 10SM OVC023 M01/M03 A3002 RMK AO2
SLP176 T10111033 53010





000
SAUS43 KAPX 010845
MTRAPN
SPECI KAPN 010844Z AUTO 00000KT 10SM BKN023 OVC065 M01/M03 A3001 RMK
AO2 T10111033





000
SAUS43 KAPX 010845
MTRAPN
SPECI KAPN 010844Z AUTO 00000KT 10SM BKN023 OVC065 M01/M03 A3001 RMK
AO2 T10111033





000
SAUS43 KAPX 010755
MTRAPN
METAR KAPN 010754Z AUTO 00000KT 10SM OVC047 M02/M03 A3000 RMK AO2
SLP168 T10171033





000
SAUS43 KAPX 010755
MTRAPN
METAR KAPN 010754Z AUTO 00000KT 10SM OVC047 M02/M03 A3000 RMK AO2
SLP168 T10171033





000
SAUS43 KAPX 010656
MTRAPN
METAR KAPN 010654Z AUTO 00000KT 10SM SCT022 OVC049 M01/M03 A2999 RMK
AO2 SLP165 T10111033





000
SAUS43 KAPX 010656
MTRAPN
METAR KAPN 010654Z AUTO 00000KT 10SM SCT022 OVC049 M01/M03 A2999 RMK
AO2 SLP165 T10111033





000
SAUS43 KAPX 010637
MTRAPN
SPECI KAPN 010636Z AUTO 00000KT 10SM BKN023 OVC070 M01/M03 A2999 RMK
AO2 T10111028





000
SAUS43 KAPX 010637
MTRAPN
SPECI KAPN 010636Z AUTO 00000KT 10SM BKN023 OVC070 M01/M03 A2999 RMK
AO2 T10111028





000
SAUS43 KAPX 010555
MTRAPN
METAR KAPN 010554Z AUTO 00000KT 10SM BKN075 M02/M03 A2999 RMK AO2
SLP164 T10171033 11006 21017 51001





000
SAUS43 KAPX 010555
MTRAPN
METAR KAPN 010554Z AUTO 00000KT 10SM BKN075 M02/M03 A2999 RMK AO2
SLP164 T10171033 11006 21017 51001





000
SAUS43 KAPX 010455
MTRAPN
METAR KAPN 010454Z AUTO 23003KT 10SM FEW034 BKN095 M01/M03 A2999 RMK
AO2 SLP163 T10111033 400391056





000
SAUS43 KAPX 010455
MTRAPN
METAR KAPN 010454Z AUTO 23003KT 10SM FEW034 BKN095 M01/M03 A2999 RMK
AO2 SLP163 T10111033 400391056





000
SAUS43 KAPX 010425
MTRAPN
SPECI KAPN 010424Z AUTO 00000KT 10SM SCT027 OVC036 M01/M04 A2999 RMK
AO2 T10111039





000
SAUS43 KAPX 010416
MTRAPN
SPECI KAPN 010415Z AUTO 21003KT 10SM BKN027 BKN036 OVC055 M01/M04
A2999 RMK AO2 T10111039





000
SAUS43 KAPX 010416
MTRAPN
SPECI KAPN 010415Z AUTO 21003KT 10SM BKN027 BKN036 OVC055 M01/M04
A2999 RMK AO2 T10111039





000
SAUS43 KAPX 010355
MTRAPN
METAR KAPN 010354Z AUTO 22003KT 10SM BKN060 OVC110 M01/M04 A3000 RMK
AO2 SLP167 T10111044





000
SAUS43 KAPX 010256
MTRAPN
METAR KAPN 010254Z AUTO 00000KT 10SM SCT055 OVC070 M01/M05 A2999 RMK
AO2 SLP163 T10061050 51011





000
SAUS43 KAPX 010155
MTRAPN
METAR KAPN 010154Z AUTO 18004KT 10SM OVC070 M01/M05 A2998 RMK AO2
SLP163 T10061050





000
SAUS43 KAPX 010155
MTRAPN
METAR KAPN 010154Z AUTO 18004KT 10SM OVC070 M01/M05 A2998 RMK AO2
SLP163 T10061050





000
SAUS43 KAPX 010055
MTRAPN
METAR KAPN 010054Z AUTO 16003KT 10SM OVC090 M01/M05 A2997 RMK AO2
SLP157 T10111050





000
SAUS43 KAPX 010055
MTRAPN
METAR KAPN 010054Z AUTO 16003KT 10SM OVC090 M01/M05 A2997 RMK AO2
SLP157 T10111050





000
SAUS43 KAPX 312355
MTRAPN
METAR KAPN 312354Z AUTO 17006KT 10SM OVC100 M01/M05 A2996 RMK AO2
SLP154 T10061050 10039 21006 53019





000
SAUS43 KAPX 312355
MTRAPN
METAR KAPN 312354Z AUTO 17006KT 10SM OVC100 M01/M05 A2996 RMK AO2
SLP154 T10061050 10039 21006 53019





000
SAUS43 KAPX 312255
MTRAPN
METAR KAPN 312254Z AUTO 13007KT 10SM BKN110 00/M05 A2993 RMK AO2
SLP145 T00001050





000
SAUS43 KAPX 312255
MTRAPN
METAR KAPN 312254Z AUTO 13007KT 10SM BKN110 00/M05 A2993 RMK AO2
SLP145 T00001050





000
SAUS43 KAPX 312155
MTRAPN
METAR KAPN 312154Z AUTO 13008KT 10SM OVC100 02/M05 A2991 RMK AO2
SLP138 T00171050





000
SAUS43 KAPX 312155
MTRAPN
METAR KAPN 312154Z AUTO 13008KT 10SM OVC100 02/M05 A2991 RMK AO2
SLP138 T00171050





000
SAUS43 KAPX 312055
MTRAPN
METAR KAPN 312054Z AUTO 11006KT 10SM SCT110 01/M05 A2990 RMK AO2
SLP134 T00111050 53001





000
SAUS43 KAPX 312055
MTRAPN
METAR KAPN 312054Z AUTO 11006KT 10SM SCT110 01/M05 A2990 RMK AO2
SLP134 T00111050 53001





000
SAUS43 KAPX 311955
MTRAPN
METAR KAPN 311954Z AUTO 10008KT 10SM FEW110 02/M06 A2990 RMK AO2
SLP134 T00171056





000
SAUS43 KAPX 311955
MTRAPN
METAR KAPN 311954Z AUTO 10008KT 10SM FEW110 02/M06 A2990 RMK AO2
SLP134 T00171056





000
SAUS43 KAPX 311855
MTRAPN
METAR KAPN 311854Z AUTO 11009KT 10SM CLR 03/M05 A2989 RMK AO2 SLP131
T00331050





000
SAUS43 KAPX 311855
MTRAPN
METAR KAPN 311854Z AUTO 11009KT 10SM CLR 03/M05 A2989 RMK AO2 SLP131
T00331050





000
SAUS43 KAPX 311755
MTRAPN
METAR KAPN 311754Z AUTO 12007KT 070V150 10SM FEW031 03/M05 A2990 RMK
AO2 SLP133 T00331050 10033 21044 51006





000
SAUS43 KAPX 311755
MTRAPN
METAR KAPN 311754Z AUTO 12007KT 070V150 10SM FEW031 03/M05 A2990 RMK
AO2 SLP133 T00331050 10033 21044 51006





000
SAUS43 KAPX 311737
MTRAPN
SPECI KAPN 311736Z AUTO 14006KT 10SM SCT028 03/M05 A2990 RMK AO2
T00281050





000
SAUS43 KAPX 311737
MTRAPN
SPECI KAPN 311736Z AUTO 14006KT 10SM SCT028 03/M05 A2990 RMK AO2
T00281050





000
SAUS43 KAPX 311655
MTRAPN
METAR KAPN 311654Z AUTO 08007KT 10SM OVC026 03/M04 A2989 RMK AO2
SLP131 T00281044





000
SAUS43 KAPX 311555
MTRAPN
METAR KAPN 311554Z AUTO 07005KT 10SM BKN024 01/M04 A2990 RMK AO2
SLP133 T00111044





000
SAUS43 KAPX 311455
MTRAPN
METAR KAPN 311454Z AUTO 02004KT 10SM BKN021 02/M04 A2988 RMK AO2
SLP126 T00171044 53006





000
SAUS43 KAPX 311455
MTRAPN
METAR KAPN 311454Z AUTO 02004KT 10SM BKN021 02/M04 A2988 RMK AO2
SLP126 T00171044 53006





000
SAUS43 KAPX 311427
MTRAPN
SPECI KAPN 311426Z AUTO 36005KT 10SM BKN019 01/M04 A2987 RMK AO2
T00111039





000
SAUS43 KAPX 311427
MTRAPN
SPECI KAPN 311426Z AUTO 36005KT 10SM BKN019 01/M04 A2987 RMK AO2
T00111039





000
SAUS43 KAPX 311356
MTRAPN
METAR KAPN 311354Z AUTO 35004KT 10SM CLR 00/M04 A2986 RMK AO2 SLP121
T00001039





000
SAUS43 KAPX 311356
MTRAPN
METAR KAPN 311354Z AUTO 35004KT 10SM CLR 00/M04 A2986 RMK AO2 SLP121
T00001039





000
SAUS43 KAPX 311255
MTRAPN
METAR KAPN 311254Z AUTO 35005KT 10SM SCT011 M01/M03 A2986 RMK AO2
SLP120 T10061033





000
SAUS43 KAPX 311255
MTRAPN
METAR KAPN 311254Z AUTO 35005KT 10SM SCT011 M01/M03 A2986 RMK AO2
SLP120 T10061033





000
SAUS43 KAPX 311155
MTRAPN
METAR KAPN 311154Z AUTO 00000KT 10SM CLR M04/M06 A2986 RMK AO2
SLP120 70005 I1000 I6000 T10441056 11028 21056 53003





000
SAUS43 KAPX 311155
MTRAPN
METAR KAPN 311154Z AUTO 00000KT 10SM CLR M04/M06 A2986 RMK AO2
SLP120 70005 I1000 I6000 T10441056 11028 21056 53003





000
SAUS43 KAPX 311055
MTRAPN
METAR KAPN 311054Z AUTO 00000KT 10SM CLR M04/M06 A2985 RMK AO2
SLP117 T10441056





000
SAUS43 KAPX 311055
MTRAPN
METAR KAPN 311054Z AUTO 00000KT 10SM CLR M04/M06 A2985 RMK AO2
SLP117 T10441056





000
SAUS43 KAPX 310956
MTRAPN
METAR KAPN 310954Z AUTO 00000KT 10SM CLR M03/M04 A2985 RMK AO2
SLP116 T10331044





000
SAUS43 KAPX 310906
MTRAPN
SPECI KAPN 310905Z AUTO 01003KT 10SM SCT007 M03/M04 A2985 RMK AO2
T10331044





000
SAUS43 KAPX 310855
MTRAPN
METAR KAPN 310854Z AUTO 00000KT 10SM CLR M03/M05 A2985 RMK AO2
SLP116 T10281050 55010





000
SAUS43 KAPX 310755
MTRAPN
METAR KAPN 310754Z AUTO 02004KT 10SM CLR M05/M07 A2985 RMK AO2
SLP115 T10501067





000
SAUS43 KAPX 310655
MTRAPN
METAR KAPN 310654Z AUTO 00000KT 10SM CLR M03/M06 A2987 RMK AO2
SLP122 T10331056





000
SAUS43 KAPX 310655
MTRAPN
METAR KAPN 310654Z AUTO 00000KT 10SM CLR M03/M06 A2987 RMK AO2
SLP122 T10331056





000
SAUS43 KAPX 310555
MTRAPN
METAR KAPN 310554Z AUTO 00000KT 10SM CLR M03/M06 A2988 RMK AO2
SLP126 T10331056 10033 21039 58013





000
SAUS43 KAPX 310455
MTRAPN
METAR KAPN 310454Z AUTO 25004KT 10SM CLR M03/M06 A2990 RMK AO2
SLP132 T10281056 400611039





000
SAUS43 KAPX 310455
MTRAPN
METAR KAPN 310454Z AUTO 25004KT 10SM CLR M03/M06 A2990 RMK AO2
SLP132 T10281056 400611039





000
SAUS43 KAPX 310355
MTRAPN
METAR KAPN 310354Z AUTO 00000KT 10SM CLR M03/M06 A2991 RMK AO2
SLP136 T10331056





000
SAUS43 KAPX 310255
MTRAPN
METAR KAPN 310254Z AUTO 00000KT 10SM CLR M02/M06 A2992 RMK AO2
SLP141 T10221061 51005





000
SAUS43 KAPX 310255
MTRAPN
METAR KAPN 310254Z AUTO 00000KT 10SM CLR M02/M06 A2992 RMK AO2
SLP141 T10221061 51005





000
SAUS43 KAPX 310155
MTRAPN
METAR KAPN 310154Z AUTO 00000KT 10SM CLR M02/M07 A2992 RMK AO2
SLP139 T10221067





000
SAUS43 KAPX 310155
MTRAPN
METAR KAPN 310154Z AUTO 00000KT 10SM CLR M02/M07 A2992 RMK AO2
SLP139 T10221067





000
SAUS43 KAPX 310055
MTRAPN
METAR KAPN 310054Z AUTO 00000KT 10SM CLR 00/M07 A2991 RMK AO2 SLP138
T00001067





000
SAUS43 KAPX 310055
MTRAPN
METAR KAPN 310054Z AUTO 00000KT 10SM CLR 00/M07 A2991 RMK AO2 SLP138
T00001067





000
SAUS43 KAPX 302355
MTRAPN
METAR KAPN 302354Z AUTO 31004KT 10SM CLR 03/M07 A2991 RMK AO2 SLP134
T00331072 10061 20033 53005





000
SAUS43 KAPX 302355
MTRAPN
METAR KAPN 302354Z AUTO 31004KT 10SM CLR 03/M07 A2991 RMK AO2 SLP134
T00331072 10061 20033 53005





000
SAUS43 KAPX 302255
MTRAPN
METAR KAPN 302254Z AUTO 32009KT 10SM CLR 05/M06 A2990 RMK AO2 SLP132
T00501056





000
SAUS43 KAPX 302255
MTRAPN
METAR KAPN 302254Z AUTO 32009KT 10SM CLR 05/M06 A2990 RMK AO2 SLP132
T00501056





000
SAUS43 KAPX 302155
MTRAPN
METAR KAPN 302154Z AUTO 30009G17KT 260V330 10SM FEW045 06/M06 A2989
RMK AO2 SLP129 T00561056





000
SAUS43 KAPX 302055
MTRAPN
METAR KAPN 302054Z AUTO 30013G21KT 10SM BKN045 04/M06 A2989 RMK AO2
SLP128 T00441061 51015





000
SAUS43 KAPX 301955
MTRAPN
METAR KAPN 301954Z AUTO 32016G22KT 10SM OVC043 03/M06 A2989 RMK AO2
SLP127 T00331061





000
SAUS43 KAPX 301955
MTRAPN
METAR KAPN 301954Z AUTO 32016G22KT 10SM OVC043 03/M06 A2989 RMK AO2
SLP127 T00331061





000
SAUS43 KAPX 301855
MTRAPN
METAR KAPN 301854Z AUTO 30014G24KT 10SM OVC045 04/M06 A2986 RMK AO2
SLP118 T00391056





000
SAUS43 KAPX 301855
MTRAPN
METAR KAPN 301854Z AUTO 30014G24KT 10SM OVC045 04/M06 A2986 RMK AO2
SLP118 T00391056





000
SAUS43 KAPX 301755
MTRAPN
METAR KAPN 301754Z AUTO 31015G23KT 10SM OVC046 04/M06 A2984 RMK AO2
PK WND 33026/1741 SLP113 60005 T00441056 10044 20000 51022





000
SAUS43 KAPX 301755
MTRAPN
METAR KAPN 301754Z AUTO 31015G23KT 10SM OVC046 04/M06 A2984 RMK AO2
PK WND 33026/1741 SLP113 60005 T00441056 10044 20000 51022





000
SAUS43 KAPX 301655
MTRAPN
METAR KAPN 301654Z AUTO 31017G25KT 10SM OVC047 03/M05 A2982 RMK AO2
PK WND 31028/1614 SLP106 T00331050





000
SAUS43 KAPX 301655
MTRAPN
METAR KAPN 301654Z AUTO 31017G25KT 10SM OVC047 03/M05 A2982 RMK AO2
PK WND 31028/1614 SLP106 T00331050





000
SAUS43 KAPX 301531
MTRAPN
SPECI KAPN 301530Z AUTO 30009G16KT 10SM SCT027 BKN049 OVC060 02/M01
A2980 RMK AO2 PK WND 31029/1500 SNE21 P0003 T00171011





000
SAUS43 KAPX 301525
MTRAPN
SPECI KAPN 301523Z AUTO 30008G17KT 9SM FEW008 BKN022 OVC060 01/M01
A2980 RMK AO2 PK WND 31029/1500 SNE21 P0003 T00111011





000
SAUS43 KAPX 301518
MTRAPN
SPECI KAPN 301516Z AUTO 30007G16KT 2 1/2SM -SN BR FEW012 BKN021
OVC060 01/M01 A2979 RMK AO2 PK WND 31029/1500 P0003 T00061011





000
SAUS43 KAPX 301513
MTRAPN
SPECI KAPN 301512Z AUTO 30009KT 1/2SM -SN FG FEW010 OVC017 01/M01
A2979 RMK AO2 PK WND 31029/1500 P0003 T00061011





000
SAUS43 KAPX 301513
MTRAPN
SPECI KAPN 301512Z AUTO 30009KT 1/2SM -SN FG FEW010 OVC017 01/M01
A2979 RMK AO2 PK WND 31029/1500 P0003 T00061011





000
SAUS43 KAPX 301505
MTRAPN
SPECI KAPN 301503Z AUTO 1/4SM SN FG BKN006 BKN011 OVC017 00/M01
A2979 RMK AO2 PK WND 31029/1500 P0000 T00001011





000
SAUS43 KAPX 301505
MTRAPN
SPECI KAPN 301503Z AUTO 1/4SM SN FG BKN006 BKN011 OVC017 00/M01
A2979 RMK AO2 PK WND 31029/1500 P0000 T00001011





000
SAUS43 KAPX 301459
MTRAPN
SPECI KAPN 301458Z AUTO 31016G23KT 1SM -SN BR BKN011 BKN017 OVC024
02/00 A2979 RMK AO2 P0000 T00170000





000
SAUS43 KAPX 301459
MTRAPN
SPECI KAPN 301458Z AUTO 31016G23KT 1SM -SN BR BKN011 BKN017 OVC024
02/00 A2979 RMK AO2 P0000 T00170000





000
SAUS43 KAPX 301456
MTRAPN
METAR KAPN 301454Z AUTO 28007G15KT 8SM -SN BKN013 OVC017 02/00 A2978
RMK AO2 VIS 2 1/2 RY 19 UPB11E13B45E48SNE11B13E45B54 SLP091 P0001
60002 T00220000 53018





000
SAUS43 KAPX 301409
MTRAPN
SPECI KAPN 301408Z AUTO 28011KT 9SM -SN BKN013 BKN017 OVC023 02/00
A2976 RMK AO2 P0000 T00170000





000
SAUS43 KAPX 301409
MTRAPN
SPECI KAPN 301408Z AUTO 28011KT 9SM -SN BKN013 BKN017 OVC023 02/00
A2976 RMK AO2 P0000 T00170000





000
SAUS43 KAPX 301355
MTRAPN
METAR KAPN 301354Z AUTO 27010G17KT 4SM -SN BR SCT011 BKN026 OVC045
02/00 A2975 RMK AO2 RAB05E06UPB06E13SNB13 SLP082 P0001 T00170000





000
SAUS43 KAPX 301336
MTRAPN
SPECI KAPN 301335Z AUTO 28010G18KT 240V310 3SM -SN BR FEW012 BKN026
OVC049 02/M01 A2974 RMK AO2 RAB05E06UPB06E13SNB13 P0001 T00171006





000
SAUS43 KAPX 301336
MTRAPN
SPECI KAPN 301335Z AUTO 28010G18KT 240V310 3SM -SN BR FEW012 BKN026
OVC049 02/M01 A2974 RMK AO2 RAB05E06UPB06E13SNB13 P0001 T00171006





000
SAUS43 KAPX 301332
MTRAPN
SPECI KAPN 301331Z AUTO 27012G18KT 1 1/2SM -SN BR BKN019 OVC050
01/M01 A2975 RMK AO2 RAB05E06UPB06E13SNB13 P0001 T00111006





000
SAUS43 KAPX 301332
MTRAPN
SPECI KAPN 301331Z AUTO 27012G18KT 1 1/2SM -SN BR BKN019 OVC050
01/M01 A2975 RMK AO2 RAB05E06UPB06E13SNB13 P0001 T00111006





000
SAUS43 KAPX 301323
MTRAPN
SPECI KAPN 301322Z AUTO 29007G18KT 2 1/2SM -SN SCT017 OVC024 02/M01
A2974 RMK AO2 VIS 1 3/4 RY 19 RAB05E06UPB06E13SNB13 P0000 T00171011





000
SAUS43 KAPX 301323
MTRAPN
SPECI KAPN 301322Z AUTO 29007G18KT 2 1/2SM -SN SCT017 OVC024 02/M01
A2974 RMK AO2 VIS 1 3/4 RY 19 RAB05E06UPB06E13SNB13 P0000 T00171011





000
SAUS43 KAPX 301255
MTRAPN
METAR KAPN 301254Z AUTO 27010KT 10SM FEW020 BKN070 OVC085 03/M01
A2973 RMK AO2 SLP073 T00281011





000
SAUS43 KAPX 301255
MTRAPN
METAR KAPN 301254Z AUTO 27010KT 10SM FEW020 BKN070 OVC085 03/M01
A2973 RMK AO2 SLP073 T00281011





000
SAUS43 KAPX 301251
MTRAPN
SPECI KAPN 301250Z AUTO 28008KT 10SM SCT020 SCT055 BKN070 03/M01
A2973 RMK AO2





000
SAUS43 KAPX 301251
MTRAPN
SPECI KAPN 301250Z AUTO 28008KT 10SM SCT020 SCT055 BKN070 03/M01
A2973 RMK AO2





000
SAUS43 KAPX 301225
MTRAPN
SPECI KAPN 301224Z AUTO 27006KT 10SM SCT021 BKN027 BKN041 02/M01
A2972 RMK AO2 T00221011





000
SAUS43 KAPX 301225
MTRAPN
SPECI KAPN 301224Z AUTO 27006KT 10SM SCT021 BKN027 BKN041 02/M01
A2972 RMK AO2 T00221011





000
SAUS43 KAPX 301155
MTRAPN
METAR KAPN 301154Z AUTO 27006KT 10SM BKN045 02/M02 A2971 RMK AO2
SLP070 60000 T00171017 10022 20017 51016





000
SAUS43 KAPX 301155
MTRAPN
METAR KAPN 301154Z AUTO 27006KT 10SM BKN045 02/M02 A2971 RMK AO2
SLP070 60000 T00171017 10022 20017 51016





000
SAUS43 KAPX 301055
MTRAPN
METAR KAPN 301054Z AUTO 29010G19KT 10SM FEW025 02/M02 A2969 RMK AO2
SLP062 T00171022





000
SAUS43 KAPX 301055
MTRAPN
METAR KAPN 301054Z AUTO 29010G19KT 10SM FEW025 02/M02 A2969 RMK AO2
SLP062 T00171022





000
SAUS43 KAPX 301052
MTRAPN
SPECI KAPN 301051Z AUTO 29011G19KT 10SM SCT025 02/M02 A2969 RMK AO2





000
SAUS43 KAPX 301052
MTRAPN
SPECI KAPN 301051Z AUTO 29011G19KT 10SM SCT025 02/M02 A2969 RMK AO2





000
SAUS43 KAPX 300955
MTRAPN
METAR KAPN 300954Z AUTO 29011G16KT 10SM BKN024 OVC030 02/M01 A2966
RMK AO2 RAB0859E11UPB00E10 SLP053 P0000 T00221011





000
SAUS43 KAPX 300856
MTRAPN
METAR KAPN 300854Z AUTO 28011G18KT 9SM FEW015 BKN023 OVC036 02/M01
A2964 RMK AO2 UPB0757E07B50E54SNB41E50 SLP043 P0000 60000 T00171006
53026





000
SAUS43 KAPX 300842
MTRAPN
SPECI KAPN 300840Z AUTO 29010G20KT 260V320 10SM SCT021 BKN025 OVC034
02/M01 A2963 RMK AO2 UPB0757E07 P0000 T00221011





000
SAUS43 KAPX 300842
MTRAPN
SPECI KAPN 300840Z AUTO 29010G20KT 260V320 10SM SCT021 BKN025 OVC034
02/M01 A2963 RMK AO2 UPB0757E07 P0000 T00221011





000
SAUS43 KAPX 300830
MTRAPN
SPECI KAPN 300829Z AUTO 29011G20KT 10SM FEW018 SCT024 BKN032 02/M01
A2963 RMK AO2 UPB0757E07 P0000 T00171011





000
SAUS43 KAPX 300830
MTRAPN
SPECI KAPN 300829Z AUTO 29011G20KT 10SM FEW018 SCT024 BKN032 02/M01
A2963 RMK AO2 UPB0757E07 P0000 T00171011





000
SAUS43 KAPX 300755
MTRAPN
METAR KAPN 300754Z AUTO 29012G17KT 270V330 10SM BKN019 BKN024 OVC035
02/M01 A2961 RMK AO2 UPB05E18RAB18E19 SLP032 P0000 T00221006





000
SAUS43 KAPX 300655
MTRAPN
METAR KAPN 300654Z AUTO 27012G18KT 10SM BKN016 BKN025 OVC036 02/M01
A2958 RMK AO2 RAE0559B30E43UPB0557E0558 SLP023 P0000 T00221006





000
SAUS43 KAPX 300655
MTRAPN
METAR KAPN 300654Z AUTO 27012G18KT 10SM BKN016 BKN025 OVC036 02/M01
A2958 RMK AO2 RAE0559B30E43UPB0557E0558 SLP023 P0000 T00221006





000
SAUS43 KAPX 300555
MTRAPN
METAR KAPN 300554Z AUTO 29010G19KT 10SM -RA SCT011 BKN017 OVC030
02/00 A2956 RMK AO2 UPB12E31B44E50RAB31 SLP015 P0000 60000 T00170000
10028 20011 53009





000
SAUS43 KAPX 300555
MTRAPN
METAR KAPN 300554Z AUTO 29010G19KT 10SM -RA SCT011 BKN017 OVC030
02/00 A2956 RMK AO2 UPB12E31B44E50RAB31 SLP015 P0000 60000 T00170000
10028 20011 53009





000
SAUS43 KAPX 300536
MTRAPN
SPECI KAPN 300535Z AUTO 29007G20KT 10SM -RA BKN012 OVC019 02/00
A2955 RMK AO2 UPB12E31RAB31 P0000 T00170000





000
SAUS43 KAPX 300536
MTRAPN
SPECI KAPN 300535Z AUTO 29007G20KT 10SM -RA BKN012 OVC019 02/00
A2955 RMK AO2 UPB12E31RAB31 P0000 T00170000





000
SAUS43 KAPX 300455
MTRAPN
METAR KAPN 300454Z AUTO 28013G19KT 10SM OVC017 02/M01 A2953 RMK AO2
SLP006 T00221006 400671089





000
SAUS43 KAPX 300455
MTRAPN
METAR KAPN 300454Z AUTO 28013G19KT 10SM OVC017 02/M01 A2953 RMK AO2
SLP006 T00221006 400671089





000
SAUS43 KAPX 300255
MTRAPN
METAR KAPN 300254Z AUTO 22007KT 10SM UP OVC018 02/M01 A2953 RMK AO2
UPB43 SLP007 P0000 60000 T00221006 56020





000
SAUS43 KAPX 300156
MTRAPN
METAR KAPN 300154Z AUTO 21009KT 10SM OVC018 02/M01 A2954 RMK AO2
SLP011 T00171011





000
SAUS43 KAPX 300127
MTRAPN
SPECI KAPN 300126Z AUTO 21009KT 10SM OVC016 02/M01 A2956 RMK AO2
T00171011





000
SAUS43 KAPX 300127
MTRAPN
SPECI KAPN 300126Z AUTO 21009KT 10SM OVC016 02/M01 A2956 RMK AO2
T00171011





000
SAUS43 KAPX 300106
MTRAPN
SPECI KAPN 300105Z AUTO 20011G17KT 10SM BKN014 OVC020 01/M01 A2956
RMK AO2 T00111011





000
SAUS43 KAPX 300106
MTRAPN
SPECI KAPN 300105Z AUTO 20011G17KT 10SM BKN014 OVC020 01/M01 A2956
RMK AO2 T00111011





000
SAUS43 KAPX 300055
MTRAPN
METAR KAPN 300054Z AUTO 21012KT 10SM FEW011 BKN016 OVC020 01/M01
A2957 RMK AO2 SNB22E41 SLP021 P0000 T00111011





000
SAUS43 KAPX 300055
MTRAPN
METAR KAPN 300054Z AUTO 21012KT 10SM FEW011 BKN016 OVC020 01/M01
A2957 RMK AO2 SNB22E41 SLP021 P0000 T00111011





000
SAUS43 KAPX 300045
MTRAPN
SPECI KAPN 300044Z AUTO 20013G20KT 5SM BR BKN013 BKN020 OVC037
01/M01 A2957 RMK AO2 SNB22E41 P0000 T00111011





000
SAUS43 KAPX 300045
MTRAPN
SPECI KAPN 300044Z AUTO 20013G20KT 5SM BR BKN013 BKN020 OVC037
01/M01 A2957 RMK AO2 SNB22E41 P0000 T00111011





000
SAUS43 KAPX 292355
MTRAPN
METAR KAPN 292354Z AUTO 21011G20KT 8SM BKN015 OVC022 01/M01 A2959
RMK AO2 UPE2258B16E30RAB2258E06SNB06E16B30E45 SLP030 P0000 60000
T00111011 10067 20006 58031





000
SAUS43 KAPX 292355
MTRAPN
METAR KAPN 292354Z AUTO 21011G20KT 8SM BKN015 OVC022 01/M01 A2959
RMK AO2 UPE2258B16E30RAB2258E06SNB06E16B30E45 SLP030 P0000 60000
T00111011 10067 20006 58031





000
SAUS43 KAPX 292255
MTRAPN
METAR KAPN 292254Z AUTO 20013G19KT 6SM UP BKN021 OVC027 01/M02 A2962
RMK AO2 UPB09E28B53RAB52E53SNE09 SLP041 P0000 T00111017





000
SAUS43 KAPX 292255
MTRAPN
METAR KAPN 292254Z AUTO 20013G19KT 6SM UP BKN021 OVC027 01/M02 A2962
RMK AO2 UPB09E28B53RAB52E53SNE09 SLP041 P0000 T00111017





000
SAUS43 KAPX 292241
MTRAPN
SPECI KAPN 292240Z AUTO 19010KT 10SM FEW016 BKN024 OVC030 01/M02
A2963 RMK AO2 UPB09E28SNE09 P0000 T00111017





000
SAUS43 KAPX 292214
MTRAPN
SPECI KAPN 292213Z AUTO 19009KT 7SM UP SCT021 OVC038 01/M02 A2965
RMK AO2 UPB09SNE09 PRESFR P0000 T00061017





000
SAUS43 KAPX 292214
MTRAPN
SPECI KAPN 292213Z AUTO 19009KT 7SM UP SCT021 OVC038 01/M02 A2965
RMK AO2 UPB09SNE09 PRESFR P0000 T00061017





000
SAUS43 KAPX 292207
MTRAPN
SPECI KAPN 292206Z AUTO 20010KT 3SM -SN SCT017 BKN024 OVC038 01/M02
A2966 RMK AO2 VIS 2 RY 19 P0000 T00111017





000
SAUS43 KAPX 292207
MTRAPN
SPECI KAPN 292206Z AUTO 20010KT 3SM -SN SCT017 BKN024 OVC038 01/M02
A2966 RMK AO2 VIS 2 RY 19 P0000 T00111017





000
SAUS43 KAPX 292156
MTRAPN
METAR KAPN 292154Z AUTO 20016G21KT 1SM -SN BKN019 OVC024 01/M02
A2967 RMK AO2 PK WND 22030/2116 SNB2055 SLP057 P0000 T00111022





000
SAUS43 KAPX 292123
MTRAPN
SPECI KAPN 292122Z AUTO 21016G30KT 1 3/4SM -SN BKN029 BKN060 OVC075
02/M04 A2967 RMK AO2 PK WND 22030/2116 SNB2055 P0000 T00221039





000
SAUS43 KAPX 292055
MTRAPN
METAR KAPN 292054Z AUTO 21017G24KT 5SM HZ BKN034 OVC050 03/M06 A2968
RMK AO2 PK WND 20035/2022 SNB25E44 SLP060 P0000 60000 T00281061
56045





000
SAUS43 KAPX 292041
MTRAPN
SPECI KAPN 292039Z AUTO 21015G26KT 3SM -SN SCT027 OVC050 02/M05
A2969 RMK AO2 PK WND 20035/2022 SNB25 P0000 T00221050





000
SAUS43 KAPX 292041
MTRAPN
SPECI KAPN 292039Z AUTO 21015G26KT 3SM -SN SCT027 OVC050 02/M05
A2969 RMK AO2 PK WND 20035/2022 SNB25 P0000 T00221050





000
SAUS43 KAPX 292033
MTRAPN
SPECI KAPN 292031Z AUTO 20020G35KT 2SM -SN BKN029 BKN036 OVC050
02/M04 A2970 RMK AO2 PK WND 20035/2022 VIS 1 1/4V5 SNB25 P0000
T00221044





000
SAUS43 KAPX 291955
MTRAPN
METAR KAPN 291954Z AUTO 19020G24KT 10SM BKN065 BKN080 OVC120 06/M12
A2969 RMK AO2 PK WND 19030/1923 PRESFR SLP062 T00561117





000
SAUS43 KAPX 291955
MTRAPN
METAR KAPN 291954Z AUTO 19020G24KT 10SM BKN065 BKN080 OVC120 06/M12
A2969 RMK AO2 PK WND 19030/1923 PRESFR SLP062 T00561117





000
SAUS43 KAPX 291855
MTRAPN
METAR KAPN 291854Z AUTO 19017G25KT 10SM CLR 06/M12 A2975 RMK AO2 PK
WND 18030/1836 SLP083 T00611117





000
SAUS43 KAPX 291855
MTRAPN
METAR KAPN 291854Z AUTO 19017G25KT 10SM CLR 06/M12 A2975 RMK AO2 PK
WND 18030/1836 SLP083 T00611117





000
SAUS43 KAPX 291755
MTRAPN
METAR KAPN 291754Z AUTO 19014G22KT 10SM CLR 06/M13 A2982 RMK AO2 PK
WND 20028/1717 PRESFR SLP107 T00611128 10061 21050 58059





000
SAUS43 KAPX 291755
MTRAPN
METAR KAPN 291754Z AUTO 19014G22KT 10SM CLR 06/M13 A2982 RMK AO2 PK
WND 20028/1717 PRESFR SLP107 T00611128 10061 21050 58059





000
SAUS43 KAPX 291655
MTRAPN
METAR KAPN 291654Z AUTO 19019G24KT 10SM CLR 06/M13 A2988 RMK AO2 PK
WND 19029/1610 SLP128 T00611128





000
SAUS43 KAPX 291655
MTRAPN
METAR KAPN 291654Z AUTO 19019G24KT 10SM CLR 06/M13 A2988 RMK AO2 PK
WND 19029/1610 SLP128 T00611128





000
SAUS43 KAPX 291555
MTRAPN
METAR KAPN 291554Z AUTO 20017G26KT 10SM CLR 04/M14 A2994 RMK AO2 PK
WND 21027/1505 PRESFR SLP148 T00391139





000
SAUS43 KAPX 291457 COR
MTRAPN
METAR KAPN 291454Z AUTO 19017G21KT 10SM CLR 03/M14 A3000 RMK AO2
SLP169 T00281139 58035





    US Dept of Commerce
    National Oceanic and Atmospheric Administration
    National Weather Service
    1325 East West Highway
    Silver Spring, MD 20910
    Page Author: NWS Internet Services Team
Disclaimer
Information Quality
Credits
Glossary
Privacy Policy
Freedom of Information Act (FOIA)
About Us
Career Opportunities